Time;durP1;ratioP1;P1;durP2;ratioP2;P2;SDS_P1;SDS_P2;PMS_P1;PMS_P2;Temp;Humidity;BMP_temperature;BMP_pressure;BME280_temperature;BME280_humidity;BME280_pressure;Samples;Min_cycle;Max_cycle;Signal;HPM_P1;HPM_P2
2023/03/05 00:01:47;;;;;;;5.32;1.20;;;8.80;58.50;;;;;;4983513;28;19930;-46
2023/03/05 00:04:16;;;;;;;3.85;1.42;;;8.80;58.30;;;;;;4990200;28;20042;-49
2023/03/05 00:06:43;;;;;;;6.60;1.85;;;8.80;58.50;;;;;;4990573;28;20497;-48
2023/03/05 00:09:19;;;;;;;6.05;1.65;;;8.80;58.70;;;;;;4986055;28;20410;-48
2023/03/05 00:11:49;;;;;;;4.88;1.38;;;8.80;59.00;;;;;;4971265;28;20105;-49
2023/03/05 00:14:15;;;;;;;5.82;2.03;;;8.80;59.10;;;;;;4990495;28;20053;-44
2023/03/05 00:16:45;;;;;;;5.05;2.08;;;8.80;59.10;;;;;;4990224;28;20077;-47
2023/03/05 00:19:15;;;;;;;6.22;1.85;;;8.80;59.20;;;;;;4984109;28;20042;-46
2023/03/05 00:21:44;;;;;;;4.82;2.05;;;8.80;59.20;;;;;;4983319;28;20577;-48
2023/03/05 00:24:16;;;;;;;;;;;8.70;59.30;;;;;;4990938;28;20039;-49
2023/03/05 00:26:46;;;;;;;4.35;1.95;;;8.80;60.00;;;;;;4984101;28;20290;-48
2023/03/05 00:29:17;;;;;;;5.57;1.92;;;8.80;59.10;;;;;;4990350;28;20562;-47
2023/03/05 00:31:45;;;;;;;8.98;2.05;;;8.80;59.10;;;;;;4972223;28;20145;-47
2023/03/05 00:34:14;;;;;;;8.75;2.53;;;8.80;59.20;;;;;;4990014;28;20057;-47
2023/03/05 00:36:48;;;;;;;5.80;2.17;;;8.70;59.20;;;;;;4984877;28;20073;-50
2023/03/05 00:39:16;;;;;;;5.88;2.17;;;8.70;59.40;;;;;;4990465;28;20046;-49
2023/03/05 00:41:43;;;;;;;5.72;1.90;;;8.70;59.40;;;;;;4978126;28;20038;-49
2023/03/05 00:44:18;;;;;;;5.90;2.05;;;8.70;59.50;;;;;;4991238;28;20046;-49
2023/03/05 00:46:47;;;;;;;6.70;2.17;;;8.70;59.60;;;;;;4978390;28;20054;-47
2023/03/05 00:49:28;;;;;;;5.45;1.77;;;8.70;59.70;;;;;;4996546;28;20054;-46
2023/03/05 00:52:04;;;;;;;7.75;2.10;;;8.70;59.80;;;;;;4964201;28;20055;-47
2023/03/05 00:54:31;;;;;;;12.25;2.50;;;8.60;59.80;;;;;;4979271;28;20511;-46
2023/03/05 00:57:04;;;;;;;6.95;1.92;;;8.60;59.90;;;;;;4988520;28;20108;-46
2023/03/05 00:59:36;;;;;;;5.32;1.77;;;8.60;59.80;;;;;;4995402;28;20578;-49
2023/03/05 01:02:05;;;;;;;8.23;1.88;;;8.60;60.00;;;;;;4974904;28;20194;-47
2023/03/05 01:04:34;;;;;;;3.00;1.20;;;8.60;59.90;;;;;;4995750;28;20039;-48
2023/03/05 01:07:03;;;;;;;6.95;1.65;;;8.60;60.10;;;;;;4978851;28;20050;-46
2023/03/05 01:09:34;;;;;;;4.43;1.65;;;8.50;60.10;;;;;;4974831;28;20042;-49
2023/03/05 01:12:01;;;;;;;7.85;1.85;;;8.50;60.10;;;;;;4996510;28;20046;-48
2023/03/05 01:14:31;;;;;;;5.53;1.38;;;8.50;60.20;;;;;;4996717;28;20439;-48
2023/03/05 01:17:04;;;;;;;4.93;1.73;;;8.50;60.30;;;;;;4987339;28;20046;-49
2023/03/05 01:19:36;;;;;;;6.70;1.80;;;8.50;60.40;;;;;;4991633;28;20045;-48
2023/03/05 01:22:05;;;;;;;5.78;1.90;;;8.50;60.50;;;;;;4985456;28;20065;-49
2023/03/05 01:24:31;;;;;;;6.00;1.67;;;8.50;60.50;;;;;;4979294;28;20069;-50
2023/03/05 01:26:58;;;;;;;7.45;1.80;;;8.50;60.50;;;;;;4989657;28;20038;-50
2023/03/05 01:29:27;;;;;;;5.70;2.00;;;8.50;60.50;;;;;;4995543;28;20050;-47
2023/03/05 01:31:54;;;;;;;3.03;1.38;;;8.50;60.60;;;;;;4978146;28;20073;-46
2023/03/05 01:34:23;;;;;;;3.45;1.60;;;8.50;60.60;;;;;;4993590;28;20046;-48
2023/03/05 01:36:52;;;;;;;4.50;1.88;;;8.50;60.80;;;;;;4975231;28;20054;-48
2023/03/05 01:39:21;;;;;;;5.57;1.90;;;8.50;60.80;;;;;;4977911;28;20065;-50
2023/03/05 01:41:49;;;;;;;2.92;1.50;;;8.50;60.80;;;;;;4976980;28;20132;-47
2023/03/05 01:44:33;;;;;;;8.55;1.55;;;8.50;60.90;;;;;;4991958;28;20053;-48
2023/03/05 01:47:00;;;;;;;8.98;2.20;;;8.50;61.10;;;;;;4987646;28;20057;-48
2023/03/05 01:49:34;;;;;;;3.53;1.55;;;8.50;60.90;;;;;;4995696;28;20042;-47
2023/03/05 01:52:16;;;;;;;3.88;1.50;;;8.50;61.10;;;;;;4980708;28;20073;-48
2023/03/05 01:54:49;;;;;;;5.60;2.30;;;8.50;61.20;;;;;;4992942;28;20056;-47
2023/03/05 01:57:32;;;;;;;4.85;1.77;;;8.40;61.10;;;;;;4975056;28;20141;-49
2023/03/05 02:00:09;;;;;;;3.45;1.75;;;8.50;61.10;;;;;;4973323;28;20053;-48
2023/03/05 02:02:46;;;;;;;3.28;1.77;;;8.40;61.70;;;;;;4992747;28;20522;-49
2023/03/05 02:05:25;;;;;;;;;;;8.50;61.20;;;;;;4992658;28;20030;-48
2023/03/05 02:07:56;;;;;;;5.60;1.70;;;8.50;61.30;;;;;;4974028;28;20013;-50
2023/03/05 02:10:41;;;;;;;8.02;1.85;;;8.50;60.80;;;;;;4987465;28;20057;-48
2023/03/05 02:13:21;;;;;;;3.90;1.60;;;8.40;61.00;;;;;;4973329;28;20046;-49
2023/03/05 02:15:56;;;;;;;9.82;1.70;;;8.40;61.00;;;;;;4989591;28;20053;-46
2023/03/05 02:18:29;;;;;;;4.50;1.80;;;8.40;61.00;;;;;;4967586;28;20068;-50
2023/03/05 02:21:00;;;;;;;4.57;1.67;;;8.40;61.00;;;;;;4988311;28;20060;-47
2023/03/05 02:23:35;;;;;;;8.30;1.85;;;8.40;61.60;;;;;;4991324;28;20398;-49
2023/03/05 02:26:07;;;;;;;3.40;1.65;;;8.40;61.20;;;;;;4991906;28;20035;-46
2023/03/05 02:28:49;;;;;;;5.93;2.10;;;8.40;61.20;;;;;;4988621;28;20539;-48
2023/03/05 02:31:19;;;;;;;6.45;1.80;;;8.40;61.20;;;;;;4985091;28;20055;-46
2023/03/05 02:33:47;;;;;;;6.38;1.92;;;8.40;61.20;;;;;;4992479;28;20046;-49
2023/03/05 02:36:14;;;;;;;4.75;1.75;;;8.40;61.30;;;;;;4972347;28;20050;-49
2023/03/05 02:38:44;;;;;;;5.40;2.17;;;8.30;61.30;;;;;;4973693;28;20760;-46
2023/03/05 02:41:11;;;;;;;7.90;2.20;;;8.30;61.40;;;;;;4973700;28;20562;-48
2023/03/05 02:43:49;;;;;;;4.82;1.58;;;8.30;61.40;;;;;;4975005;28;20075;-47
2023/03/05 02:46:18;;;;;;;8.68;2.55;;;8.30;61.40;;;;;;4971448;28;20721;-49
2023/03/05 02:48:48;;;;;;;4.82;1.80;;;8.30;61.40;;;;;;4990847;28;20042;-48
2023/03/05 02:51:15;;;;;;;7.00;1.77;;;8.30;61.40;;;;;;4968437;28;20051;-50
2023/03/05 02:53:43;;;;;;;5.15;2.63;;;8.30;61.40;;;;;;4989232;28;20038;-50
2023/03/05 02:56:13;;;;;;;7.95;1.80;;;8.30;61.30;;;;;;4974251;28;20045;-49
2023/03/05 02:58:40;;;;;;;5.07;2.25;;;8.30;61.30;;;;;;4975199;28;20058;-50
2023/03/05 03:01:09;;;;;;;4.68;1.77;;;8.30;61.20;;;;;;4968243;28;20430;-51
2023/03/05 03:03:41;;;;;;;5.13;2.25;;;8.30;61.40;;;;;;4992115;28;20070;-50
2023/03/05 03:06:10;;;;;;;7.00;2.00;;;8.20;61.40;;;;;;4983669;28;20050;-47
2023/03/05 03:08:39;;;;;;;6.68;2.20;;;8.30;61.50;;;;;;4989622;28;20080;-50
2023/03/05 03:11:12;;;;;;;8.25;2.58;;;8.30;61.60;;;;;;4988275;28;20130;-49
2023/03/05 03:13:39;;;;;;;5.82;2.05;;;8.20;61.60;;;;;;4992180;28;20046;-50
2023/03/05 03:16:12;;;;;;;4.05;1.90;;;8.20;61.60;;;;;;4983680;28;20387;-49
2023/03/05 03:18:46;;;;;;;4.13;1.88;;;8.20;61.60;;;;;;4986415;28;20069;-46
2023/03/05 03:21:22;;;;;;;4.45;2.15;;;8.20;61.60;;;;;;4988331;28;20043;-52
2023/03/05 03:23:54;;;;;;;7.22;2.00;;;8.20;61.80;;;;;;4990610;28;20058;-46
2023/03/05 03:26:20;;;;;;;6.50;1.65;;;8.20;61.80;;;;;;4987014;28;20129;-49
2023/03/05 03:28:49;;;;;;;5.78;2.33;;;8.20;61.70;;;;;;4989085;28;20518;-47
2023/03/05 03:31:19;;;;;;;6.40;1.90;;;8.20;61.90;;;;;;4990385;28;20047;-50
2023/03/05 03:33:46;;;;;;;5.63;1.90;;;8.20;61.90;;;;;;4990459;28;20109;-50
2023/03/05 03:36:15;;;;;;;7.43;2.10;;;8.20;61.80;;;;;;4983432;28;20046;-50
2023/03/05 03:38:44;;;;;;;7.40;2.00;;;8.10;61.70;;;;;;4990872;28;20045;-45
2023/03/05 03:41:18;;;;;;;6.65;2.00;;;8.10;61.60;;;;;;4972390;28;20042;-51
2023/03/05 03:43:47;;;;;;;3.85;1.83;;;8.20;61.70;;;;;;4985732;28;20043;-50
2023/03/05 03:46:21;;;;;;;3.80;1.52;;;8.20;61.60;;;;;;4990787;28;20126;-47
2023/03/05 03:48:51;;;;;;;4.47;1.80;;;8.10;61.60;;;;;;4989872;28;20100;-47
2023/03/05 03:51:20;;;;;;;9.35;1.80;;;8.10;61.60;;;;;;4987794;28;20578;-49
2023/03/05 03:53:46;;;;;;;6.45;1.45;;;8.10;61.50;;;;;;4988336;28;20046;-48
2023/03/05 03:56:18;;;;;;;7.38;2.00;;;8.10;61.60;;;;;;4990573;28;20037;-50
2023/03/05 03:58:45;;;;;;;4.05;1.50;;;8.10;61.60;;;;;;4989106;28;20043;-49
2023/03/05 04:01:12;;;;;;;3.88;1.55;;;8.10;61.60;;;;;;4985901;28;20053;-49
2023/03/05 04:03:43;;;;;;;5.38;1.65;;;8.10;61.60;;;;;;4974260;28;20098;-50
2023/03/05 04:06:13;;;;;;;3.17;1.52;;;8.10;61.60;;;;;;4989679;28;20046;-48
2023/03/05 04:08:41;;;;;;;3.67;1.55;;;8.00;61.60;;;;;;4987140;28;20533;-46
2023/03/05 04:11:10;;;;;;;5.97;1.77;;;8.00;61.60;;;;;;4989153;28;20065;-47
2023/03/05 04:13:41;;;;;;;8.30;1.80;;;8.00;61.60;;;;;;4990650;28;20069;-46
2023/03/05 04:16:14;;;;;;;5.00;2.38;;;8.00;61.70;;;;;;4990026;28;20056;-47
2023/03/05 04:18:41;;;;;;;4.03;2.00;;;8.00;61.60;;;;;;4985671;28;20033;-46
2023/03/05 04:21:08;;;;;;;6.78;2.10;;;8.00;61.80;;;;;;4986495;28;20038;-47
2023/03/05 04:23:36;;;;;;;4.65;1.85;;;7.90;62.00;;;;;;4987282;28;20035;-48
2023/03/05 04:26:03;;;;;;;7.13;2.53;;;7.90;62.00;;;;;;4986257;28;20407;-49
2023/03/05 04:28:33;;;;;;;6.30;1.80;;;7.90;62.10;;;;;;4985101;28;20038;-45
2023/03/05 04:31:01;;;;;;;5.63;1.73;;;7.90;62.00;;;;;;4988284;28;20525;-46
2023/03/05 04:33:31;;;;;;;1.75;1.30;;;7.90;61.80;;;;;;4990715;28;20049;-46
2023/03/05 04:35:58;;;;;;;4.68;1.75;;;7.90;61.80;;;;;;4985406;28;20055;-45
2023/03/05 04:38:28;;;;;;;6.47;1.48;;;7.90;61.80;;;;;;4990419;28;20065;-49
2023/03/05 04:40:58;;;;;;;2.63;1.65;;;7.90;61.90;;;;;;4988767;28;20052;-51
2023/03/05 04:43:24;;;;;;;6.07;1.83;;;7.90;61.90;;;;;;4990449;28;20089;-46
2023/03/05 04:45:51;;;;;;;5.20;1.85;;;7.90;62.00;;;;;;4983678;28;20038;-47
2023/03/05 04:48:20;;;;;;;4.90;1.77;;;7.90;62.10;;;;;;4989773;28;20126;-50
2023/03/05 04:50:53;;;;;;;6.80;2.30;;;7.90;62.20;;;;;;4986732;28;20039;-47
2023/03/05 04:53:22;;;;;;;5.35;2.10;;;7.90;62.40;;;;;;4983947;28;20058;-51
2023/03/05 04:55:53;;;;;;;8.05;2.42;;;7.90;62.50;;;;;;4988707;28;20085;-46
2023/03/05 04:58:20;;;;;;;5.25;2.45;;;7.90;62.70;;;;;;4992116;28;20050;-48
2023/03/05 05:00:52;;;;;;;7.28;2.65;;;7.90;62.70;;;;;;4984755;28;20061;-49
2023/03/05 05:03:26;;;;;;;4.60;2.58;;;7.90;62.90;;;;;;4990670;28;20432;-47
2023/03/05 05:06:02;;;;;;;8.15;2.55;;;7.90;63.00;;;;;;4989411;28;20097;-47
2023/03/05 05:08:31;;;;;;;4.38;2.30;;;7.90;62.70;;;;;;4985459;28;20869;-50
2023/03/05 05:11:07;;;;;;;7.40;3.00;;;7.90;62.60;;;;;;4987439;28;20039;-50
2023/03/05 05:13:34;;;;;;;4.68;2.35;;;7.90;63.00;;;;;;4990346;28;20046;-48
2023/03/05 05:16:08;;;;;;;5.68;2.30;;;7.80;62.70;;;;;;4986997;28;20089;-49
2023/03/05 05:18:34;;;;;;;8.23;2.47;;;7.80;62.90;;;;;;4988949;28;20495;-47
2023/03/05 05:21:05;;;;;;;9.35;3.17;;;7.80;62.80;;;;;;4986911;28;20051;-48
2023/03/05 05:23:32;;;;;;;7.45;2.80;;;7.80;62.80;;;;;;4986876;28;20034;-48
2023/03/05 05:26:00;;;;;;;7.00;2.58;;;7.80;62.80;;;;;;4986644;28;20050;-49
2023/03/05 05:28:30;;;;;;;6.18;2.08;;;7.80;62.80;;;;;;4987078;28;20038;-49
2023/03/05 05:30:56;;;;;;;4.78;2.50;;;7.80;62.90;;;;;;4991486;28;20038;-48
2023/03/05 05:33:26;;;;;;;5.95;2.42;;;7.80;63.00;;;;;;4993976;28;20042;-46
2023/03/05 05:35:53;;;;;;;6.20;2.15;;;7.80;63.10;;;;;;4989611;28;20534;-47
2023/03/05 05:38:20;;;;;;;16.80;2.85;;;7.70;63.00;;;;;;4993021;28;20065;-48
2023/03/05 05:40:49;;;;;;;6.72;2.28;;;7.70;63.10;;;;;;4991789;28;20042;-47
2023/03/05 05:43:21;;;;;;;3.23;1.77;;;7.80;63.20;;;;;;4989234;28;20414;-46
2023/03/05 05:45:52;;;;;;;6.53;2.53;;;7.70;63.10;;;;;;4990168;28;20140;-49
2023/03/05 05:48:21;;;;;;;4.10;2.70;;;7.80;63.30;;;;;;4993360;28;20454;-48
2023/03/05 05:50:50;;;;;;;7.05;2.65;;;7.70;63.10;;;;;;4990678;28;20369;-48
2023/03/05 05:53:17;;;;;;;4.75;2.45;;;7.70;63.10;;;;;;4989768;28;20104;-45
2023/03/05 05:55:46;;;;;;;5.28;2.28;;;7.70;63.20;;;;;;4992043;28;20042;-48
2023/03/05 05:58:14;;;;;;;6.40;2.60;;;7.70;63.30;;;;;;4993411;28;20077;-48
2023/03/05 06:00:40;;;;;;;7.47;3.30;;;7.80;63.30;;;;;;4990175;28;20041;-46
2023/03/05 06:03:12;;;;;;;7.55;3.30;;;7.70;63.30;;;;;;4992591;28;20117;-46
2023/03/05 06:05:42;;;;;;;7.55;2.78;;;7.70;63.40;;;;;;4992359;28;20518;-48
2023/03/05 06:08:09;;;;;;;5.53;3.03;;;7.70;63.40;;;;;;4991155;28;20503;-48
2023/03/05 06:10:36;;;;;;;7.57;3.13;;;7.70;64.10;;;;;;4973928;28;20066;-48
2023/03/05 06:13:08;;;;;;;4.55;2.35;;;7.70;63.50;;;;;;4993631;28;20042;-47
2023/03/05 06:15:40;;;;;;;7.05;3.25;;;7.70;63.60;;;;;;4990729;28;20045;-51
2023/03/05 06:18:06;;;;;;;9.10;3.15;;;7.70;63.70;;;;;;4991681;28;20053;-51
2023/03/05 06:20:35;;;;;;;6.60;2.50;;;7.70;63.60;;;;;;4989605;28;20054;-51
2023/03/05 06:23:01;;;;;;;7.60;2.83;;;7.70;63.60;;;;;;4989310;28;20043;-49
2023/03/05 06:25:28;;;;;;;4.45;2.08;;;7.70;63.70;;;;;;4992852;28;20042;-51
2023/03/05 06:27:55;;;;;;;5.75;3.00;;;7.70;63.80;;;;;;4987942;28;20073;-50
2023/03/05 06:30:24;;;;;;;8.05;3.42;;;7.70;63.80;;;;;;4991541;28;20502;-51
2023/03/05 06:32:56;;;;;;;;;;;7.70;63.80;;;;;;4993750;28;20038;-50
2023/03/05 06:35:28;;;;;;;9.38;2.85;;;7.70;64.10;;;;;;4987982;28;19934;-51
2023/03/05 06:37:58;;;;;;;4.07;3.00;;;7.70;63.40;;;;;;4992299;28;20053;-50
2023/03/05 06:40:31;;;;;;;7.90;2.67;;;7.70;63.70;;;;;;4990770;28;20072;-50
2023/03/05 06:43:08;;;;;;;5.47;3.13;;;7.80;63.90;;;;;;4985398;28;20251;-51
2023/03/05 06:45:38;;;;;;;5.13;2.75;;;7.70;64.00;;;;;;4991384;28;20042;-51
2023/03/05 06:48:12;;;;;;;6.15;3.15;;;7.70;64.00;;;;;;4990517;28;20081;-50
2023/03/05 06:50:41;;;;;;;6.03;3.05;;;7.70;64.00;;;;;;4988888;28;20478;-51
2023/03/05 06:53:08;;;;;;;7.13;3.10;;;7.70;64.00;;;;;;4990805;28;20058;-48
2023/03/05 06:55:38;;;;;;;7.15;3.28;;;7.70;64.10;;;;;;4991107;28;20062;-51
2023/03/05 06:58:05;;;;;;;10.63;3.38;;;7.80;64.10;;;;;;4990877;28;20062;-51
2023/03/05 07:00:35;;;;;;;9.82;4.28;;;7.80;64.00;;;;;;4985837;28;20049;-51
2023/03/05 07:03:01;;;;;;;6.97;3.80;;;7.80;64.20;;;;;;4987267;28;20406;-47
2023/03/05 07:05:28;;;;;;;7.47;3.40;;;7.80;64.10;;;;;;4991012;28;20045;-47
2023/03/05 07:08:00;;;;;;;8.48;3.70;;;7.80;64.10;;;;;;4973951;28;20038;-47
2023/03/05 07:10:26;;;;;;;8.07;3.90;;;7.80;64.10;;;;;;4986727;28;20435;-48
2023/03/05 07:12:53;;;;;;;8.85;4.18;;;7.80;64.30;;;;;;4991676;28;20050;-52
2023/03/05 07:15:20;;;;;;;10.15;4.97;;;7.80;64.40;;;;;;4990763;28;20069;-50
2023/03/05 07:17:50;;;;;;;6.65;3.08;;;7.80;64.40;;;;;;4987768;28;20042;-51
2023/03/05 07:20:18;;;;;;;5.25;3.78;;;7.90;64.60;;;;;;4989686;28;20050;-48
2023/03/05 07:22:50;;;;;;;6.72;4.20;;;7.90;64.30;;;;;;4986227;28;20046;-50
2023/03/05 07:25:20;;;;;;;9.70;4.10;;;7.90;64.40;;;;;;4988228;28;20114;-50
2023/03/05 07:27:51;;;;;;;8.55;3.85;;;7.90;64.40;;;;;;4990615;28;20045;-50
2023/03/05 07:30:21;;;;;;;6.93;3.65;;;8.00;64.40;;;;;;4976099;28;20046;-50
2023/03/05 07:32:51;;;;;;;9.50;3.75;;;8.00;64.40;;;;;;4977163;28;20046;-48
2023/03/05 07:35:17;;;;;;;8.30;3.47;;;8.10;64.40;;;;;;4985862;28;20077;-45
2023/03/05 07:37:44;;;;;;;6.53;3.38;;;8.10;64.40;;;;;;4992932;28;20145;-46
2023/03/05 07:40:11;;;;;;;6.82;3.65;;;8.10;64.40;;;;;;4984936;28;20068;-47
2023/03/05 07:42:37;;;;;;;9.48;3.85;;;8.10;64.30;;;;;;4991264;28;20121;-47
2023/03/05 07:45:13;;;;;;;7.95;4.45;;;8.20;64.40;;;;;;4971158;28;20097;-46
2023/03/05 07:47:40;;;;;;;9.00;3.70;;;8.20;64.40;;;;;;4989441;28;20042;-48
2023/03/05 07:50:07;;;;;;;4.63;4.13;;;8.30;64.30;;;;;;4989026;28;20051;-47
2023/03/05 07:52:36;;;;;;;8.77;4.72;;;8.30;64.30;;;;;;4987349;28;20049;-49
2023/03/05 07:55:03;;;;;;;11.18;4.88;;;8.30;64.20;;;;;;4991340;28;20046;-49
2023/03/05 07:57:30;;;;;;;7.93;4.60;;;8.40;64.20;;;;;;4991096;28;20519;-47
2023/03/05 07:59:56;;;;;;;6.47;4.30;;;8.40;64.20;;;;;;4989361;28;20038;-44
2023/03/05 08:02:23;;;;;;;7.20;3.83;;;8.40;64.20;;;;;;4981795;28;20042;-46
2023/03/05 08:04:50;;;;;;;8.82;4.03;;;8.50;64.20;;;;;;4988699;28;20042;-45
2023/03/05 08:07:16;;;;;;;11.60;4.93;;;8.50;64.00;;;;;;4982809;28;21121;-50
2023/03/05 08:09:43;;;;;;;7.97;4.45;;;8.60;64.00;;;;;;4989982;28;20038;-44
2023/03/05 08:12:09;;;;;;;9.40;4.32;;;8.60;63.80;;;;;;4982942;28;20042;-50
2023/03/05 08:14:37;;;;;;;9.00;5.40;;;8.60;63.70;;;;;;4991289;28;20034;-46
2023/03/05 08:17:04;;;;;;;8.80;4.13;;;8.60;63.60;;;;;;4988880;28;20038;-46
2023/03/05 08:19:32;;;;;;;7.07;3.75;;;8.70;63.70;;;;;;4987574;28;20039;-47
2023/03/05 08:21:59;;;;;;;8.57;4.68;;;8.70;63.50;;;;;;4983858;28;20050;-47
2023/03/05 08:24:28;;;;;;;7.82;4.38;;;8.70;63.40;;;;;;4990758;28;20423;-45
2023/03/05 08:26:56;;;;;;;6.90;4.22;;;8.70;63.30;;;;;;4989468;28;20041;-49
2023/03/05 08:29:24;;;;;;;7.13;4.53;;;8.70;63.30;;;;;;4982870;28;20399;-46
2023/03/05 08:31:52;;;;;;;10.52;4.25;;;8.70;63.40;;;;;;4985935;28;20042;-46
2023/03/05 08:34:22;;;;;;;10.77;4.70;;;8.80;63.50;;;;;;4982489;28;20046;-47
2023/03/05 08:36:49;;;;;;;8.27;5.05;;;8.80;63.70;;;;;;4990428;28;20065;-48
2023/03/05 08:39:16;;;;;;;5.85;4.18;;;8.80;63.70;;;;;;4984740;28;20125;-46
2023/03/05 08:41:42;;;;;;;7.30;5.00;;;8.80;63.70;;;;;;4986688;28;20042;-44
2023/03/05 08:44:13;;;;;;;8.02;5.20;;;8.80;63.90;;;;;;4990555;28;20499;-48
2023/03/05 08:46:39;;;;;;;7.82;5.03;;;8.80;63.80;;;;;;4988439;28;20097;-52
2023/03/05 08:49:06;;;;;;;8.02;4.40;;;8.80;63.90;;;;;;4984730;28;20122;-53
2023/03/05 08:51:34;;;;;;;6.28;4.45;;;8.80;63.70;;;;;;4968311;28;20085;-49
2023/03/05 08:54:05;;;;;;;8.07;6.13;;;8.80;63.50;;;;;;4991092;28;20046;-53
2023/03/05 08:56:33;;;;;;;7.97;6.00;;;8.70;63.50;;;;;;4990056;28;20048;-49
2023/03/05 08:59:00;;;;;;;9.07;6.43;;;8.70;63.70;;;;;;4990427;28;20050;-49
2023/03/05 09:01:27;;;;;;;9.13;6.22;;;8.70;63.70;;;;;;4986181;28;20418;-50
2023/03/05 09:03:54;;;;;;;9.73;6.60;;;8.70;63.60;;;;;;4993456;28;20070;-48
2023/03/05 09:06:20;;;;;;;7.25;5.97;;;8.60;63.80;;;;;;4994027;28;20160;-50
2023/03/05 09:08:47;;;;;;;7.28;6.40;;;8.60;64.00;;;;;;4989876;28;20038;-49
2023/03/05 09:11:14;;;;;;;7.63;5.53;;;8.60;64.10;;;;;;4986720;28;20050;-53
2023/03/05 09:13:40;;;;;;;8.45;6.75;;;8.60;64.20;;;;;;4995803;28;20042;-50
2023/03/05 09:16:11;;;;;;;8.57;6.25;;;8.60;64.30;;;;;;4992962;28;20464;-51
2023/03/05 09:18:39;;;;;;;6.85;6.20;;;8.60;64.70;;;;;;4992088;28;20070;-49
2023/03/05 09:21:08;;;;;;;9.00;5.95;;;8.60;64.80;;;;;;4981079;28;20073;-48
2023/03/05 09:23:35;;;;;;;7.47;5.40;;;8.60;64.60;;;;;;4994317;28;20419;-53
2023/03/05 09:26:04;;;;;;;7.32;5.63;;;8.60;64.50;;;;;;4990315;28;20034;-50
2023/03/05 09:28:31;;;;;;;7.63;5.47;;;8.70;64.50;;;;;;4991990;28;20129;-53
2023/03/05 09:31:02;;;;;;;8.43;5.57;;;8.70;64.50;;;;;;4990237;28;20073;-50
2023/03/05 09:33:30;;;;;;;6.47;5.67;;;8.70;64.70;;;;;;4993311;28;20046;-49
2023/03/05 09:35:58;;;;;;;9.32;5.85;;;8.70;64.60;;;;;;4993967;28;20285;-50
2023/03/05 09:38:26;;;;;;;6.82;4.82;;;8.70;64.60;;;;;;4991019;28;20050;-53
2023/03/05 09:40:58;;;;;;;6.10;4.88;;;8.80;64.60;;;;;;4988496;28;20477;-48
2023/03/05 09:43:54;;;;;;;4.80;3.92;;;8.80;64.70;;;;;;4993738;28;20053;-50
2023/03/05 09:46:43;;;;;;;7.50;5.45;;;8.80;64.60;;;;;;4992256;28;20562;-49
2023/03/05 09:49:22;;;;;;;6.28;4.95;;;8.80;64.60;;;;;;4991179;28;20149;-49
2023/03/05 09:51:56;;;;;;;6.70;5.03;;;8.80;64.30;;;;;;4971057;28;20397;-49
2023/03/05 09:54:34;;;;;;;5.30;4.78;;;8.90;64.50;;;;;;4993638;28;20051;-50
2023/03/05 09:57:04;;;;;;;8.27;5.20;;;8.90;64.50;;;;;;4993087;28;20089;-49
2023/03/05 09:59:41;;;;;;;5.70;4.50;;;8.90;64.70;;;;;;4982795;28;20046;-50
2023/03/05 10:02:19;;;;;;;5.40;4.03;;;8.90;64.90;;;;;;4988291;28;20049;-53
2023/03/05 10:05:01;;;;;;;5.65;4.20;;;9.00;65.00;;;;;;4993442;28;20517;-50
2023/03/05 10:07:35;;;;;;;7.53;4.30;;;9.00;65.10;;;;;;4996466;28;20101;-53
2023/03/05 10:10:04;;;;;;;4.20;3.83;;;9.10;64.70;;;;;;4989163;28;20053;-49
2023/03/05 10:12:43;;;;;;;6.78;4.43;;;9.10;64.80;;;;;;4994078;28;20042;-53
2023/03/05 10:15:34;;;;;;;8.48;4.88;;;9.20;64.70;;;;;;4993206;28;20057;-50
2023/03/05 10:18:33;;;;;;;5.88;3.92;;;9.30;64.70;;;;;;4989836;28;20093;-48
2023/03/05 10:21:08;;;;;;;5.70;4.38;;;9.40;64.60;;;;;;4986081;28;20125;-53
2023/03/05 10:23:40;;;;;;;5.10;4.35;;;9.50;64.30;;;;;;4983589;28;20038;-49
2023/03/05 10:26:19;;;;;;;;;;;9.60;64.30;;;;;;4989642;28;20038;-50
2023/03/05 10:29:04;;;;;;;6.03;3.50;;;9.70;64.30;;;;;;4975901;28;20447;-51
2023/03/05 10:31:56;;;;;;;9.73;4.03;;;9.90;63.60;;;;;;4985145;28;20114;-50
2023/03/05 10:34:47;;;;;;;5.25;2.90;;;9.90;63.10;;;;;;4992758;28;20046;-49
2023/03/05 10:37:32;;;;;;;6.50;3.53;;;10.00;62.90;;;;;;4992619;28;20046;-49
2023/03/05 10:40:25;;;;;;;3.95;3.33;;;10.00;62.30;;;;;;4988473;28;20042;-53
2023/03/05 10:43:21;;;;;;;4.97;3.30;;;10.00;62.00;;;;;;4985371;28;20038;-49
2023/03/05 10:45:51;;;;;;;4.22;3.40;;;10.00;62.20;;;;;;4986054;28;20038;-50
2023/03/05 10:48:54;;;;;;;3.72;3.13;;;10.00;61.90;;;;;;4988876;28;20088;-52
2023/03/05 10:51:51;;;;;;;4.15;3.50;;;10.00;61.50;;;;;;4987026;28;20574;-52
2023/03/05 10:54:34;;;;;;;4.10;3.70;;;10.00;61.70;;;;;;4989841;28;20035;-51
2023/03/05 10:57:22;;;;;;;3.35;3.05;;;10.00;61.10;;;;;;4989562;28;20050;-54
2023/03/05 10:59:51;;;;;;;5.85;3.75;;;10.00;61.30;;;;;;4988139;28;20062;-49
2023/03/05 11:02:19;;;;;;;4.10;3.05;;;9.90;61.50;;;;;;4989730;28;20042;-51
2023/03/05 11:04:47;;;;;;;6.18;3.45;;;9.90;61.40;;;;;;4991177;28;20041;-51
2023/03/05 11:07:16;;;;;;;4.57;3.28;;;9.90;61.30;;;;;;4984854;28;20046;-48
2023/03/05 11:10:20;;;;;;;5.82;4.28;;;9.90;61.20;;;;;;4989152;28;20059;-53
2023/03/05 11:12:47;;;;;;;5.18;4.10;;;9.90;60.90;;;;;;4990420;28;20057;-52
2023/03/05 11:15:13;;;;;;;7.22;3.92;;;9.90;61.40;;;;;;4988347;28;20039;-48
2023/03/05 11:17:46;;;;;;;4.35;3.63;;;9.90;61.80;;;;;;4988188;28;20050;-53
2023/03/05 11:20:25;;;;;;;5.07;3.15;;;9.90;61.70;;;;;;4986620;28;20125;-49
2023/03/05 11:23:22;;;;;;;3.83;3.00;;;10.00;61.20;;;;;;4990109;28;20056;-53
2023/03/05 11:25:54;;;;;;;4.00;2.92;;;10.10;61.20;;;;;;4984153;28;20045;-50
2023/03/05 11:28:42;;;;;;;3.42;2.38;;;10.10;61.10;;;;;;4990011;28;20118;-50
2023/03/05 11:31:15;;;;;;;4.07;2.95;;;10.20;60.70;;;;;;4975743;28;20061;-49
2023/03/05 11:34:05;;;;;;;2.60;2.40;;;10.30;60.50;;;;;;4991545;28;20053;-52
2023/03/05 11:36:35;;;;;;;5.13;3.00;;;10.40;59.70;;;;;;4985214;28;20062;-50
2023/03/05 11:39:15;;;;;;;3.70;2.42;;;10.40;59.90;;;;;;4971723;28;20404;-53
2023/03/05 11:42:09;;;;;;;2.67;2.45;;;10.40;59.90;;;;;;4988861;28;20053;-51
2023/03/05 11:44:39;;;;;;;4.82;2.42;;;10.40;59.50;;;;;;4974115;28;20082;-53
2023/03/05 11:47:34;;;;;;;3.70;2.05;;;10.40;59.70;;;;;;4990020;28;20045;-53
2023/03/05 11:50:11;;;;;;;1.95;1.85;;;10.30;60.40;;;;;;4989383;28;20525;-49
2023/03/05 11:53:03;;;;;;;2.50;2.30;;;10.30;61.20;;;;;;4985712;28;20049;-53
2023/03/05 11:55:53;;;;;;;2.97;2.38;;;10.20;62.90;;;;;;4980304;28;20045;-53
2023/03/05 11:58:31;;;;;;;1.60;1.50;;;10.10;63.70;;;;;;4987552;28;20045;-54
2023/03/05 12:01:00;;;;;;;1.60;1.50;;;10.10;63.00;;;;;;4982666;28;20034;-54
2023/03/05 12:03:31;;;;;;;4.45;2.28;;;10.10;62.90;;;;;;4984654;28;20054;-48
2023/03/05 12:06:31;;;;;;;4.55;2.05;;;10.10;62.60;;;;;;4989634;28;20039;-49
2023/03/05 12:09:02;;;;;;;2.67;2.17;;;10.20;62.00;;;;;;4959136;28;20416;-53
2023/03/05 12:11:31;;;;;;;5.57;1.88;;;10.30;62.00;;;;;;4989194;28;20503;-54
2023/03/05 12:14:03;;;;;;;2.97;1.88;;;10.30;61.60;;;;;;4991432;28;20043;-49
2023/03/05 12:16:36;;;;;;;3.63;2.35;;;10.30;61.40;;;;;;4987797;28;20548;-50
2023/03/05 12:19:49;;;;;;;2.42;2.22;;;10.40;61.60;;;;;;4990329;28;20061;-51
2023/03/05 12:22:25;;;;;;;2.20;1.60;;;10.50;60.60;;;;;;4963923;28;20053;-52
2023/03/05 12:24:52;;;;;;;2.00;1.60;;;10.50;61.30;;;;;;4989533;28;20046;-51
2023/03/05 12:27:33;;;;;;;3.20;1.80;;;10.50;62.30;;;;;;4990234;28;20455;-48
2023/03/05 12:30:00;;;;;;;2.75;1.65;;;10.70;61.20;;;;;;4988021;28;20419;-50
2023/03/05 12:32:34;;;;;;;3.05;2.30;;;10.70;61.30;;;;;;4989530;28;20109;-51
2023/03/05 12:35:03;;;;;;;6.18;3.17;;;10.80;61.10;;;;;;4990458;28;20482;-50
2023/03/05 12:37:30;;;;;;;6.72;4.05;;;11.00;60.90;;;;;;4989843;28;20117;-48
2023/03/05 12:39:59;;;;;;;4.05;3.55;;;11.10;60.40;;;;;;4983723;28;20054;-51
2023/03/05 12:42:29;;;;;;;3.55;3.20;;;11.10;59.80;;;;;;4990236;28;20047;-51
2023/03/05 12:45:11;;;;;;;3.88;3.20;;;11.20;59.30;;;;;;4991042;28;20140;-50
2023/03/05 12:47:42;;;;;;;3.72;3.28;;;11.10;59.10;;;;;;4983037;28;20065;-51
2023/03/05 12:50:26;;;;;;;3.83;2.80;;;11.00;58.90;;;;;;4984122;28;20034;-50
2023/03/05 12:53:03;;;;;;;3.25;2.92;;;11.00;59.00;;;;;;4987201;28;20054;-49
2023/03/05 12:55:38;;;;;;;3.40;2.75;;;11.00;59.00;;;;;;4989313;28;20046;-52
2023/03/05 12:58:13;;;;;;;3.10;2.60;;;10.90;59.00;;;;;;4988248;28;20057;-54
2023/03/05 13:01:09;;;;;;;2.40;2.15;;;10.90;58.90;;;;;;4981449;28;20387;-50
2023/03/05 13:03:46;;;;;;;3.35;2.30;;;10.80;58.60;;;;;;4972648;28;20064;-49
2023/03/05 13:06:39;;;;;;;4.13;2.63;;;10.80;58.80;;;;;;4986233;28;20042;-47
2023/03/05 13:09:24;;;;;;;3.10;2.70;;;10.80;58.90;;;;;;4983773;28;20773;-51
2023/03/05 13:11:55;;;;;;;3.72;2.75;;;10.80;59.30;;;;;;4989611;28;20049;-51
2023/03/05 13:14:29;;;;;;;4.55;3.03;;;10.80;59.20;;;;;;4989638;28;20125;-50
2023/03/05 13:16:56;;;;;;;6.05;2.58;;;10.90;59.00;;;;;;4989817;28;20146;-51
2023/03/05 13:19:23;;;;;;;3.45;2.38;;;10.90;58.90;;;;;;4988794;28;20415;-47
2023/03/05 13:22:00;;;;;;;4.07;2.00;;;10.90;58.90;;;;;;4981970;28;20487;-49